sensor_id;sensor_type;location;lat;lon;timestamp;P1;durP1;ratioP1;P2;durP2;ratioP2
42084;SDS011;27746;52.228;20.890;2023-05-07T00:02:09;8.70;;;3.67;;
42084;SDS011;27746;52.228;20.890;2023-05-07T00:04:36;7.75;;;3.85;;
42084;SDS011;27746;52.228;20.890;2023-05-07T00:07:04;7.15;;;4.25;;
42084;SDS011;27746;52.228;20.890;2023-05-07T00:09:31;7.40;;;4.18;;
42084;SDS011;27746;52.228;20.890;2023-05-07T00:11:58;8.85;;;4.35;;
42084;SDS011;27746;52.228;20.890;2023-05-07T00:14:25;9.35;;;4.45;;
42084;SDS011;27746;52.228;20.890;2023-05-07T00:16:52;10.00;;;4.18;;
42084;SDS011;27746;52.228;20.890;2023-05-07T00:19:20;12.60;;;4.45;;
42084;SDS011;27746;52.228;20.890;2023-05-07T00:21:47;9.88;;;4.18;;
42084;SDS011;27746;52.228;20.890;2023-05-07T00:24:14;8.32;;;4.10;;
42084;SDS011;27746;52.228;20.890;2023-05-07T00:26:41;6.40;;;4.00;;
42084;SDS011;27746;52.228;20.890;2023-05-07T00:29:08;7.03;;;4.03;;
42084;SDS011;27746;52.228;20.890;2023-05-07T00:31:35;6.80;;;4.05;;
42084;SDS011;27746;52.228;20.890;2023-05-07T00:34:02;9.00;;;4.05;;
42084;SDS011;27746;52.228;20.890;2023-05-07T00:36:30;7.65;;;4.03;;
42084;SDS011;27746;52.228;20.890;2023-05-07T00:38:58;8.60;;;3.70;;
42084;SDS011;27746;52.228;20.890;2023-05-07T00:41:28;8.57;;;3.95;;
42084;SDS011;27746;52.228;20.890;2023-05-07T00:43:55;6.82;;;4.18;;
42084;SDS011;27746;52.228;20.890;2023-05-07T00:46:23;7.13;;;3.80;;
42084;SDS011;27746;52.228;20.890;2023-05-07T00:48:50;6.85;;;4.00;;
42084;SDS011;27746;52.228;20.890;2023-05-07T00:51:18;7.97;;;4.65;;
42084;SDS011;27746;52.228;20.890;2023-05-07T00:53:46;9.18;;;4.25;;
42084;SDS011;27746;52.228;20.890;2023-05-07T00:56:13;8.88;;;4.40;;
42084;SDS011;27746;52.228;20.890;2023-05-07T00:58:40;9.00;;;5.13;;
42084;SDS011;27746;52.228;20.890;2023-05-07T01:01:07;7.45;;;3.42;;
42084;SDS011;27746;52.228;20.890;2023-05-07T01:03:34;8.75;;;4.60;;
42084;SDS011;27746;52.228;20.890;2023-05-07T01:06:02;6.25;;;3.65;;
42084;SDS011;27746;52.228;20.890;2023-05-07T01:08:29;7.88;;;4.55;;
42084;SDS011;27746;52.228;20.890;2023-05-07T01:10:58;10.57;;;4.20;;
42084;SDS011;27746;52.228;20.890;2023-05-07T01:13:26;7.07;;;3.95;;
42084;SDS011;27746;52.228;20.890;2023-05-07T01:15:53;6.72;;;3.88;;
42084;SDS011;27746;52.228;20.890;2023-05-07T01:18:20;7.43;;;3.58;;
42084;SDS011;27746;52.228;20.890;2023-05-07T01:20:48;8.85;;;3.90;;
42084;SDS011;27746;52.228;20.890;2023-05-07T01:23:16;8.02;;;4.68;;
42084;SDS011;27746;52.228;20.890;2023-05-07T01:25:50;8.43;;;3.88;;
42084;SDS011;27746;52.228;20.890;2023-05-07T01:28:17;6.75;;;3.85;;
42084;SDS011;27746;52.228;20.890;2023-05-07T01:30:45;8.98;;;4.57;;
42084;SDS011;27746;52.228;20.890;2023-05-07T01:33:15;8.02;;;4.35;;
42084;SDS011;27746;52.228;20.890;2023-05-07T01:35:47;9.40;;;4.10;;
42084;SDS011;27746;52.228;20.890;2023-05-07T01:38:18;7.30;;;4.00;;
42084;SDS011;27746;52.228;20.890;2023-05-07T01:40:46;7.65;;;3.95;;
42084;SDS011;27746;52.228;20.890;2023-05-07T01:43:14;6.70;;;3.85;;
42084;SDS011;27746;52.228;20.890;2023-05-07T01:45:41;6.60;;;3.45;;
42084;SDS011;27746;52.228;20.890;2023-05-07T01:48:10;6.50;;;3.28;;
42084;SDS011;27746;52.228;20.890;2023-05-07T01:50:38;5.97;;;3.45;;
42084;SDS011;27746;52.228;20.890;2023-05-07T01:53:06;7.40;;;3.92;;
42084;SDS011;27746;52.228;20.890;2023-05-07T01:55:35;6.38;;;3.88;;
42084;SDS011;27746;52.228;20.890;2023-05-07T01:58:03;6.85;;;3.50;;
42084;SDS011;27746;52.228;20.890;2023-05-07T02:00:30;11.25;;;3.78;;
42084;SDS011;27746;52.228;20.890;2023-05-07T02:02:57;7.68;;;4.18;;
42084;SDS011;27746;52.228;20.890;2023-05-07T02:05:24;6.88;;;4.03;;
42084;SDS011;27746;52.228;20.890;2023-05-07T02:07:52;6.80;;;3.85;;
42084;SDS011;27746;52.228;20.890;2023-05-07T02:10:19;9.30;;;4.03;;
42084;SDS011;27746;52.228;20.890;2023-05-07T02:12:48;7.07;;;4.45;;
42084;SDS011;27746;52.228;20.890;2023-05-07T02:15:15;6.72;;;4.07;;
42084;SDS011;27746;52.228;20.890;2023-05-07T02:17:57;5.47;;;3.58;;
42084;SDS011;27746;52.228;20.890;2023-05-07T02:20:25;6.28;;;3.42;;
42084;SDS011;27746;52.228;20.890;2023-05-07T02:22:52;6.25;;;3.90;;
42084;SDS011;27746;52.228;20.890;2023-05-07T02:25:18;7.93;;;3.15;;
42084;SDS011;27746;52.228;20.890;2023-05-07T02:27:46;8.82;;;4.03;;
42084;SDS011;27746;52.228;20.890;2023-05-07T02:30:14;8.68;;;4.82;;
42084;SDS011;27746;52.228;20.890;2023-05-07T02:32:41;6.68;;;3.15;;
42084;SDS011;27746;52.228;20.890;2023-05-07T02:35:08;6.60;;;3.47;;
42084;SDS011;27746;52.228;20.890;2023-05-07T02:37:35;7.32;;;3.40;;
42084;SDS011;27746;52.228;20.890;2023-05-07T02:40:03;6.55;;;3.50;;
42084;SDS011;27746;52.228;20.890;2023-05-07T02:42:30;6.50;;;3.67;;
42084;SDS011;27746;52.228;20.890;2023-05-07T02:44:57;10.48;;;5.35;;
42084;SDS011;27746;52.228;20.890;2023-05-07T02:47:26;5.90;;;3.67;;
42084;SDS011;27746;52.228;20.890;2023-05-07T02:49:53;7.80;;;3.85;;
42084;SDS011;27746;52.228;20.890;2023-05-07T02:52:20;5.07;;;3.20;;
42084;SDS011;27746;52.228;20.890;2023-05-07T02:54:47;6.55;;;3.10;;
42084;SDS011;27746;52.228;20.890;2023-05-07T02:57:14;6.53;;;2.83;;
42084;SDS011;27746;52.228;20.890;2023-05-07T02:59:41;7.38;;;3.35;;
42084;SDS011;27746;52.228;20.890;2023-05-07T03:02:08;7.18;;;3.20;;
42084;SDS011;27746;52.228;20.890;2023-05-07T03:04:37;5.53;;;3.42;;
42084;SDS011;27746;52.228;20.890;2023-05-07T03:07:06;6.53;;;3.40;;
42084;SDS011;27746;52.228;20.890;2023-05-07T03:09:33;7.45;;;3.13;;
42084;SDS011;27746;52.228;20.890;2023-05-07T03:12:00;9.50;;;3.53;;
42084;SDS011;27746;52.228;20.890;2023-05-07T03:14:27;7.18;;;3.13;;
42084;SDS011;27746;52.228;20.890;2023-05-07T03:16:54;6.47;;;3.55;;
42084;SDS011;27746;52.228;20.890;2023-05-07T03:19:21;7.07;;;3.85;;
42084;SDS011;27746;52.228;20.890;2023-05-07T03:21:49;7.40;;;3.30;;
42084;SDS011;27746;52.228;20.890;2023-05-07T03:24:16;8.25;;;4.13;;
42084;SDS011;27746;52.228;20.890;2023-05-07T03:26:43;6.57;;;3.28;;
42084;SDS011;27746;52.228;20.890;2023-05-07T03:29:10;5.30;;;3.60;;
42084;SDS011;27746;52.228;20.890;2023-05-07T03:31:38;5.88;;;3.58;;
42084;SDS011;27746;52.228;20.890;2023-05-07T03:34:04;6.40;;;3.25;;
42084;SDS011;27746;52.228;20.890;2023-05-07T03:36:32;7.43;;;3.50;;
42084;SDS011;27746;52.228;20.890;2023-05-07T03:39:00;6.00;;;3.33;;
42084;SDS011;27746;52.228;20.890;2023-05-07T03:41:27;6.45;;;3.42;;
42084;SDS011;27746;52.228;20.890;2023-05-07T03:43:54;7.10;;;3.33;;
42084;SDS011;27746;52.228;20.890;2023-05-07T03:46:21;8.70;;;2.90;;
42084;SDS011;27746;52.228;20.890;2023-05-07T03:48:51;5.18;;;2.90;;
42084;SDS011;27746;52.228;20.890;2023-05-07T03:51:18;5.90;;;3.25;;
42084;SDS011;27746;52.228;20.890;2023-05-07T03:53:45;9.23;;;3.33;;
42084;SDS011;27746;52.228;20.890;2023-05-07T03:56:13;7.85;;;3.70;;
42084;SDS011;27746;52.228;20.890;2023-05-07T03:58:40;4.75;;;3.13;;
42084;SDS011;27746;52.228;20.890;2023-05-07T04:01:07;6.25;;;3.08;;
42084;SDS011;27746;52.228;20.890;2023-05-07T04:03:34;5.90;;;3.45;;
42084;SDS011;27746;52.228;20.890;2023-05-07T04:06:01;6.32;;;3.45;;
42084;SDS011;27746;52.228;20.890;2023-05-07T04:08:28;5.63;;;3.10;;
42084;SDS011;27746;52.228;20.890;2023-05-07T04:10:55;4.97;;;3.17;;
42084;SDS011;27746;52.228;20.890;2023-05-07T04:13:24;8.63;;;3.22;;
42084;SDS011;27746;52.228;20.890;2023-05-07T04:15:51;5.88;;;2.78;;
42084;SDS011;27746;52.228;20.890;2023-05-07T04:18:18;6.55;;;3.38;;
42084;SDS011;27746;52.228;20.890;2023-05-07T04:20:46;4.70;;;2.80;;
42084;SDS011;27746;52.228;20.890;2023-05-07T04:23:14;4.45;;;2.55;;
42084;SDS011;27746;52.228;20.890;2023-05-07T04:25:41;9.32;;;3.90;;
42084;SDS011;27746;52.228;20.890;2023-05-07T04:28:08;6.22;;;3.30;;
42084;SDS011;27746;52.228;20.890;2023-05-07T04:30:36;5.90;;;3.30;;
42084;SDS011;27746;52.228;20.890;2023-05-07T04:33:03;6.50;;;3.15;;
42084;SDS011;27746;52.228;20.890;2023-05-07T04:35:31;7.03;;;3.92;;
42084;SDS011;27746;52.228;20.890;2023-05-07T04:37:58;6.53;;;3.55;;
42084;SDS011;27746;52.228;20.890;2023-05-07T04:40:26;7.95;;;4.50;;
42084;SDS011;27746;52.228;20.890;2023-05-07T04:42:53;6.90;;;4.13;;
42084;SDS011;27746;52.228;20.890;2023-05-07T04:45:21;4.90;;;3.35;;
42084;SDS011;27746;52.228;20.890;2023-05-07T04:47:49;6.28;;;3.45;;
42084;SDS011;27746;52.228;20.890;2023-05-07T04:50:16;5.38;;;3.30;;
42084;SDS011;27746;52.228;20.890;2023-05-07T04:52:44;5.15;;;3.25;;
42084;SDS011;27746;52.228;20.890;2023-05-07T04:55:11;7.43;;;3.28;;
42084;SDS011;27746;52.228;20.890;2023-05-07T04:57:38;5.53;;;3.13;;
42084;SDS011;27746;52.228;20.890;2023-05-07T05:00:06;5.82;;;2.90;;
42084;SDS011;27746;52.228;20.890;2023-05-07T05:02:35;5.75;;;3.20;;
42084;SDS011;27746;52.228;20.890;2023-05-07T05:05:03;5.53;;;3.40;;
42084;SDS011;27746;52.228;20.890;2023-05-07T05:07:31;5.88;;;3.22;;
42084;SDS011;27746;52.228;20.890;2023-05-07T05:09:58;4.80;;;2.90;;
42084;SDS011;27746;52.228;20.890;2023-05-07T05:12:25;5.07;;;2.80;;
42084;SDS011;27746;52.228;20.890;2023-05-07T05:14:54;4.97;;;3.30;;
42084;SDS011;27746;52.228;20.890;2023-05-07T05:17:20;6.30;;;3.22;;
42084;SDS011;27746;52.228;20.890;2023-05-07T05:19:47;5.70;;;3.10;;
42084;SDS011;27746;52.228;20.890;2023-05-07T05:22:16;8.02;;;3.50;;
42084;SDS011;27746;52.228;20.890;2023-05-07T05:24:42;5.72;;;2.90;;
42084;SDS011;27746;52.228;20.890;2023-05-07T05:27:12;5.95;;;2.92;;
42084;SDS011;27746;52.228;20.890;2023-05-07T05:29:39;5.53;;;3.30;;
42084;SDS011;27746;52.228;20.890;2023-05-07T05:32:06;6.07;;;3.47;;
42084;SDS011;27746;52.228;20.890;2023-05-07T05:34:33;6.40;;;3.47;;
42084;SDS011;27746;52.228;20.890;2023-05-07T05:37:00;5.10;;;2.90;;
42084;SDS011;27746;52.228;20.890;2023-05-07T05:39:29;5.35;;;3.17;;
42084;SDS011;27746;52.228;20.890;2023-05-07T05:41:55;4.72;;;3.00;;
42084;SDS011;27746;52.228;20.890;2023-05-07T05:44:23;8.57;;;3.05;;
42084;SDS011;27746;52.228;20.890;2023-05-07T05:46:50;6.18;;;2.83;;
42084;SDS011;27746;52.228;20.890;2023-05-07T05:49:19;7.40;;;2.80;;
42084;SDS011;27746;52.228;20.890;2023-05-07T05:51:46;4.85;;;2.78;;
42084;SDS011;27746;52.228;20.890;2023-05-07T05:54:13;4.72;;;2.80;;
42084;SDS011;27746;52.228;20.890;2023-05-07T05:56:42;8.15;;;2.75;;
42084;SDS011;27746;52.228;20.890;2023-05-07T05:59:09;7.35;;;2.90;;
42084;SDS011;27746;52.228;20.890;2023-05-07T06:01:36;3.72;;;2.40;;
42084;SDS011;27746;52.228;20.890;2023-05-07T06:04:04;4.57;;;2.80;;
42084;SDS011;27746;52.228;20.890;2023-05-07T06:06:31;7.30;;;3.90;;
42084;SDS011;27746;52.228;20.890;2023-05-07T06:08:58;4.25;;;2.33;;
42084;SDS011;27746;52.228;20.890;2023-05-07T06:11:25;4.25;;;2.33;;
42084;SDS011;27746;52.228;20.890;2023-05-07T06:13:53;4.38;;;2.15;;
42084;SDS011;27746;52.228;20.890;2023-05-07T06:16:20;5.00;;;2.50;;
42084;SDS011;27746;52.228;20.890;2023-05-07T06:18:47;4.07;;;2.35;;
42084;SDS011;27746;52.228;20.890;2023-05-07T06:21:14;6.18;;;2.03;;
42084;SDS011;27746;52.228;20.890;2023-05-07T06:23:41;5.97;;;3.42;;
42084;SDS011;27746;52.228;20.890;2023-05-07T06:26:08;6.25;;;3.00;;
42084;SDS011;27746;52.228;20.890;2023-05-07T06:28:35;5.43;;;2.63;;
42084;SDS011;27746;52.228;20.890;2023-05-07T06:31:13;4.45;;;2.75;;
42084;SDS011;27746;52.228;20.890;2023-05-07T06:33:40;8.20;;;2.90;;
42084;SDS011;27746;52.228;20.890;2023-05-07T06:36:07;5.35;;;2.20;;
42084;SDS011;27746;52.228;20.890;2023-05-07T06:38:35;4.97;;;2.55;;
42084;SDS011;27746;52.228;20.890;2023-05-07T06:41:02;5.53;;;2.97;;
42084;SDS011;27746;52.228;20.890;2023-05-07T06:43:29;5.47;;;2.72;;
42084;SDS011;27746;52.228;20.890;2023-05-07T06:45:56;4.72;;;2.65;;
42084;SDS011;27746;52.228;20.890;2023-05-07T06:48:24;5.43;;;2.53;;
42084;SDS011;27746;52.228;20.890;2023-05-07T06:50:51;4.20;;;2.33;;
42084;SDS011;27746;52.228;20.890;2023-05-07T06:53:20;4.13;;;2.25;;
42084;SDS011;27746;52.228;20.890;2023-05-07T06:55:47;3.92;;;2.10;;
42084;SDS011;27746;52.228;20.890;2023-05-07T06:58:14;4.75;;;2.53;;
42084;SDS011;27746;52.228;20.890;2023-05-07T07:00:40;5.50;;;2.50;;
42084;SDS011;27746;52.228;20.890;2023-05-07T07:03:07;6.03;;;3.10;;
42084;SDS011;27746;52.228;20.890;2023-05-07T07:05:36;4.13;;;2.40;;
42084;SDS011;27746;52.228;20.890;2023-05-07T07:08:03;5.47;;;2.53;;
42084;SDS011;27746;52.228;20.890;2023-05-07T07:10:30;4.78;;;2.63;;
42084;SDS011;27746;52.228;20.890;2023-05-07T07:12:57;4.88;;;2.70;;
42084;SDS011;27746;52.228;20.890;2023-05-07T07:15:24;4.32;;;2.28;;
42084;SDS011;27746;52.228;20.890;2023-05-07T07:17:52;5.22;;;2.60;;
42084;SDS011;27746;52.228;20.890;2023-05-07T07:20:19;4.18;;;2.50;;
42084;SDS011;27746;52.228;20.890;2023-05-07T07:22:47;5.65;;;2.65;;
42084;SDS011;27746;52.228;20.890;2023-05-07T07:25:14;4.35;;;2.10;;
42084;SDS011;27746;52.228;20.890;2023-05-07T07:27:41;5.00;;;2.40;;
42084;SDS011;27746;52.228;20.890;2023-05-07T07:30:08;4.43;;;2.30;;
42084;SDS011;27746;52.228;20.890;2023-05-07T07:32:35;5.40;;;2.40;;
42084;SDS011;27746;52.228;20.890;2023-05-07T07:35:02;4.32;;;2.30;;
42084;SDS011;27746;52.228;20.890;2023-05-07T07:37:29;5.57;;;2.33;;
42084;SDS011;27746;52.228;20.890;2023-05-07T07:39:58;3.85;;;2.17;;
42084;SDS011;27746;52.228;20.890;2023-05-07T07:42:26;5.10;;;2.10;;
42084;SDS011;27746;52.228;20.890;2023-05-07T07:44:54;4.15;;;2.20;;
42084;SDS011;27746;52.228;20.890;2023-05-07T07:47:22;4.60;;;2.47;;
42084;SDS011;27746;52.228;20.890;2023-05-07T07:49:49;4.22;;;2.53;;
42084;SDS011;27746;52.228;20.890;2023-05-07T07:52:15;6.72;;;2.50;;
42084;SDS011;27746;52.228;20.890;2023-05-07T07:54:42;4.50;;;2.40;;
42084;SDS011;27746;52.228;20.890;2023-05-07T07:57:13;5.75;;;2.72;;
42084;SDS011;27746;52.228;20.890;2023-05-07T07:59:40;4.32;;;2.00;;
42084;SDS011;27746;52.228;20.890;2023-05-07T08:02:08;4.07;;;2.00;;
42084;SDS011;27746;52.228;20.890;2023-05-07T08:04:35;5.05;;;2.70;;
42084;SDS011;27746;52.228;20.890;2023-05-07T08:07:02;3.90;;;2.42;;
42084;SDS011;27746;52.228;20.890;2023-05-07T08:09:30;4.97;;;2.38;;
42084;SDS011;27746;52.228;20.890;2023-05-07T08:11:57;4.30;;;2.17;;
42084;SDS011;27746;52.228;20.890;2023-05-07T08:14:25;6.75;;;2.67;;
42084;SDS011;27746;52.228;20.890;2023-05-07T08:16:53;3.42;;;2.20;;
42084;SDS011;27746;52.228;20.890;2023-05-07T08:19:20;9.50;;;5.43;;
42084;SDS011;27746;52.228;20.890;2023-05-07T08:21:47;4.82;;;2.55;;
42084;SDS011;27746;52.228;20.890;2023-05-07T08:24:15;3.58;;;2.08;;
42084;SDS011;27746;52.228;20.890;2023-05-07T08:26:42;5.43;;;2.42;;
42084;SDS011;27746;52.228;20.890;2023-05-07T08:29:10;5.78;;;2.47;;
42084;SDS011;27746;52.228;20.890;2023-05-07T08:31:38;5.38;;;3.05;;
42084;SDS011;27746;52.228;20.890;2023-05-07T08:34:05;5.70;;;2.40;;
42084;SDS011;27746;52.228;20.890;2023-05-07T08:36:32;4.30;;;2.13;;
42084;SDS011;27746;52.228;20.890;2023-05-07T08:38:59;5.43;;;2.55;;
42084;SDS011;27746;52.228;20.890;2023-05-07T08:41:27;3.45;;;2.00;;
42084;SDS011;27746;52.228;20.890;2023-05-07T08:43:54;6.07;;;3.05;;
42084;SDS011;27746;52.228;20.890;2023-05-07T08:46:23;4.50;;;2.30;;
42084;SDS011;27746;52.228;20.890;2023-05-07T08:48:53;3.78;;;2.17;;
42084;SDS011;27746;52.228;20.890;2023-05-07T08:51:20;4.68;;;2.08;;
42084;SDS011;27746;52.228;20.890;2023-05-07T08:53:48;3.28;;;1.98;;
42084;SDS011;27746;52.228;20.890;2023-05-07T08:56:16;4.88;;;2.20;;
42084;SDS011;27746;52.228;20.890;2023-05-07T08:58:45;5.07;;;2.55;;
42084;SDS011;27746;52.228;20.890;2023-05-07T09:01:13;3.80;;;2.30;;
42084;SDS011;27746;52.228;20.890;2023-05-07T09:03:41;5.15;;;2.40;;
42084;SDS011;27746;52.228;20.890;2023-05-07T09:06:11;5.18;;;2.60;;
42084;SDS011;27746;52.228;20.890;2023-05-07T09:08:38;5.07;;;2.53;;
42084;SDS011;27746;52.228;20.890;2023-05-07T09:11:05;4.88;;;2.15;;
42084;SDS011;27746;52.228;20.890;2023-05-07T09:13:32;3.67;;;2.00;;
42084;SDS011;27746;52.228;20.890;2023-05-07T09:15:59;4.60;;;1.83;;
42084;SDS011;27746;52.228;20.890;2023-05-07T09:18:40;4.10;;;2.03;;
42084;SDS011;27746;52.228;20.890;2023-05-07T09:21:09;4.95;;;2.25;;
42084;SDS011;27746;52.228;20.890;2023-05-07T09:23:41;3.55;;;1.98;;
42084;SDS011;27746;52.228;20.890;2023-05-07T09:26:08;3.83;;;2.00;;
42084;SDS011;27746;52.228;20.890;2023-05-07T09:28:38;5.53;;;2.40;;
42084;SDS011;27746;52.228;20.890;2023-05-07T09:31:06;5.80;;;2.28;;
42084;SDS011;27746;52.228;20.890;2023-05-07T09:33:33;3.53;;;1.92;;
42084;SDS011;27746;52.228;20.890;2023-05-07T09:36:03;3.20;;;1.73;;
42084;SDS011;27746;52.228;20.890;2023-05-07T09:38:32;3.80;;;2.25;;
42084;SDS011;27746;52.228;20.890;2023-05-07T09:41:03;2.95;;;1.58;;
42084;SDS011;27746;52.228;20.890;2023-05-07T09:43:34;4.30;;;1.70;;
42084;SDS011;27746;52.228;20.890;2023-05-07T09:46:06;3.25;;;1.90;;
42084;SDS011;27746;52.228;20.890;2023-05-07T09:48:35;7.85;;;2.85;;
42084;SDS011;27746;52.228;20.890;2023-05-07T09:51:06;4.57;;;2.22;;
42084;SDS011;27746;52.228;20.890;2023-05-07T09:53:42;4.70;;;1.80;;
42084;SDS011;27746;52.228;20.890;2023-05-07T09:56:11;6.18;;;3.30;;
42084;SDS011;27746;52.228;20.890;2023-05-07T09:58:40;7.28;;;2.55;;
42084;SDS011;27746;52.228;20.890;2023-05-07T10:01:08;4.60;;;1.80;;
42084;SDS011;27746;52.228;20.890;2023-05-07T10:03:37;7.30;;;2.10;;
42084;SDS011;27746;52.228;20.890;2023-05-07T10:06:08;4.55;;;1.80;;
42084;SDS011;27746;52.228;20.890;2023-05-07T10:08:35;3.47;;;1.90;;
42084;SDS011;27746;52.228;20.890;2023-05-07T10:11:04;3.67;;;1.75;;
42084;SDS011;27746;52.228;20.890;2023-05-07T10:13:32;2.95;;;1.65;;
42084;SDS011;27746;52.228;20.890;2023-05-07T10:16:01;3.95;;;1.83;;
42084;SDS011;27746;52.228;20.890;2023-05-07T10:18:30;4.30;;;2.08;;
42084;SDS011;27746;52.228;20.890;2023-05-07T10:20:59;3.13;;;1.55;;
42084;SDS011;27746;52.228;20.890;2023-05-07T10:23:30;3.97;;;1.97;;
42084;SDS011;27746;52.228;20.890;2023-05-07T10:25:59;3.65;;;1.65;;
42084;SDS011;27746;52.228;20.890;2023-05-07T10:28:29;5.82;;;1.88;;
42084;SDS011;27746;52.228;20.890;2023-05-07T10:31:02;4.15;;;1.83;;
42084;SDS011;27746;52.228;20.890;2023-05-07T10:33:41;3.30;;;1.88;;
42084;SDS011;27746;52.228;20.890;2023-05-07T10:36:10;4.82;;;1.67;;
42084;SDS011;27746;52.228;20.890;2023-05-07T10:38:38;3.08;;;1.70;;
42084;SDS011;27746;52.228;20.890;2023-05-07T10:41:05;6.55;;;1.90;;
42084;SDS011;27746;52.228;20.890;2023-05-07T10:43:44;2.92;;;1.60;;
42084;SDS011;27746;52.228;20.890;2023-05-07T10:46:13;2.65;;;1.55;;
42084;SDS011;27746;52.228;20.890;2023-05-07T10:51:37;2.63;;;1.45;;
42084;SDS011;27746;52.228;20.890;2023-05-07T10:56:52;5.15;;;1.60;;
42084;SDS011;27746;52.228;20.890;2023-05-07T10:59:33;4.50;;;1.88;;
42084;SDS011;27746;52.228;20.890;2023-05-07T11:02:06;6.85;;;1.42;;
42084;SDS011;27746;52.228;20.890;2023-05-07T11:04:35;3.97;;;1.80;;
42084;SDS011;27746;52.228;20.890;2023-05-07T11:07:25;3.35;;;2.00;;
42084;SDS011;27746;52.228;20.890;2023-05-07T11:09:54;3.28;;;1.65;;
42084;SDS011;27746;52.228;20.890;2023-05-07T11:18:09;7.05;;;2.70;;
42084;SDS011;27746;52.228;20.890;2023-05-07T11:20:53;3.60;;;1.90;;
42084;SDS011;27746;52.228;20.890;2023-05-07T11:26:23;3.45;;;1.50;;
42084;SDS011;27746;52.228;20.890;2023-05-07T11:28:52;2.75;;;1.45;;
42084;SDS011;27746;52.228;20.890;2023-05-07T11:31:22;4.05;;;1.52;;
42084;SDS011;27746;52.228;20.890;2023-05-07T11:33:51;3.72;;;1.90;;
42084;SDS011;27746;52.228;20.890;2023-05-07T11:36:18;4.10;;;1.80;;
42084;SDS011;27746;52.228;20.890;2023-05-07T11:38:47;5.78;;;2.03;;
42084;SDS011;27746;52.228;20.890;2023-05-07T11:41:15;4.28;;;1.70;;
42084;SDS011;27746;52.228;20.890;2023-05-07T11:43:55;4.93;;;2.30;;
42084;SDS011;27746;52.228;20.890;2023-05-07T11:46:24;3.05;;;1.75;;
42084;SDS011;27746;52.228;20.890;2023-05-07T11:48:52;2.80;;;1.45;;
42084;SDS011;27746;52.228;20.890;2023-05-07T11:51:19;4.93;;;1.75;;
42084;SDS011;27746;52.228;20.890;2023-05-07T11:53:47;5.70;;;2.00;;
42084;SDS011;27746;52.228;20.890;2023-05-07T11:56:15;3.20;;;1.55;;
42084;SDS011;27746;52.228;20.890;2023-05-07T11:58:43;2.92;;;1.48;;
42084;SDS011;27746;52.228;20.890;2023-05-07T12:01:12;3.83;;;2.08;;
42084;SDS011;27746;52.228;20.890;2023-05-07T12:03:42;3.20;;;1.33;;
42084;SDS011;27746;52.228;20.890;2023-05-07T12:06:10;2.67;;;1.27;;
42084;SDS011;27746;52.228;20.890;2023-05-07T12:08:38;3.58;;;1.65;;
42084;SDS011;27746;52.228;20.890;2023-05-07T12:11:09;8.05;;;2.83;;
42084;SDS011;27746;52.228;20.890;2023-05-07T12:13:38;3.70;;;1.52;;
42084;SDS011;27746;52.228;20.890;2023-05-07T12:16:05;3.55;;;1.52;;
42084;SDS011;27746;52.228;20.890;2023-05-07T12:18:36;5.75;;;1.88;;
42084;SDS011;27746;52.228;20.890;2023-05-07T12:21:05;4.32;;;1.52;;
42084;SDS011;27746;52.228;20.890;2023-05-07T12:23:34;3.42;;;1.40;;
42084;SDS011;27746;52.228;20.890;2023-05-07T12:26:02;3.00;;;1.63;;
42084;SDS011;27746;52.228;20.890;2023-05-07T12:28:29;2.78;;;1.58;;
42084;SDS011;27746;52.228;20.890;2023-05-07T12:30:57;3.90;;;1.58;;
42084;SDS011;27746;52.228;20.890;2023-05-07T12:33:24;3.20;;;1.15;;
42084;SDS011;27746;52.228;20.890;2023-05-07T12:35:54;3.20;;;1.33;;
42084;SDS011;27746;52.228;20.890;2023-05-07T12:38:23;4.38;;;1.63;;
42084;SDS011;27746;52.228;20.890;2023-05-07T12:40:50;3.08;;;1.27;;
42084;SDS011;27746;52.228;20.890;2023-05-07T12:43:20;3.25;;;1.40;;
42084;SDS011;27746;52.228;20.890;2023-05-07T12:45:51;3.08;;;1.67;;
42084;SDS011;27746;52.228;20.890;2023-05-07T12:48:19;4.40;;;1.40;;
42084;SDS011;27746;52.228;20.890;2023-05-07T12:50:48;5.20;;;1.70;;
42084;SDS011;27746;52.228;20.890;2023-05-07T12:53:16;2.58;;;1.42;;
42084;SDS011;27746;52.228;20.890;2023-05-07T12:55:46;3.67;;;1.50;;
42084;SDS011;27746;52.228;20.890;2023-05-07T12:58:15;3.38;;;1.63;;
42084;SDS011;27746;52.228;20.890;2023-05-07T13:00:43;3.08;;;1.35;;
42084;SDS011;27746;52.228;20.890;2023-05-07T13:03:10;2.60;;;1.40;;
42084;SDS011;27746;52.228;20.890;2023-05-07T13:05:37;5.38;;;1.90;;
42084;SDS011;27746;52.228;20.890;2023-05-07T13:08:05;4.75;;;2.03;;
42084;SDS011;27746;52.228;20.890;2023-05-07T13:10:34;4.13;;;1.65;;
42084;SDS011;27746;52.228;20.890;2023-05-07T13:13:03;3.25;;;1.60;;
42084;SDS011;27746;52.228;20.890;2023-05-07T13:15:29;4.03;;;1.92;;
42084;SDS011;27746;52.228;20.890;2023-05-07T13:17:56;4.22;;;1.50;;
42084;SDS011;27746;52.228;20.890;2023-05-07T13:20:23;2.67;;;1.50;;
42084;SDS011;27746;52.228;20.890;2023-05-07T13:22:50;2.78;;;1.52;;
42084;SDS011;27746;52.228;20.890;2023-05-07T13:25:17;2.50;;;1.20;;
42084;SDS011;27746;52.228;20.890;2023-05-07T13:27:44;3.00;;;1.35;;
42084;SDS011;27746;52.228;20.890;2023-05-07T13:30:13;3.70;;;1.50;;
42084;SDS011;27746;52.228;20.890;2023-05-07T13:32:40;4.47;;;1.40;;
42084;SDS011;27746;52.228;20.890;2023-05-07T13:35:07;3.50;;;1.23;;
42084;SDS011;27746;52.228;20.890;2023-05-07T13:37:34;3.42;;;1.40;;
42084;SDS011;27746;52.228;20.890;2023-05-07T13:40:01;3.17;;;1.88;;
42084;SDS011;27746;52.228;20.890;2023-05-07T13:42:28;5.15;;;1.40;;
42084;SDS011;27746;52.228;20.890;2023-05-07T13:44:55;2.70;;;1.30;;
42084;SDS011;27746;52.228;20.890;2023-05-07T13:47:24;3.10;;;1.33;;
42084;SDS011;27746;52.228;20.890;2023-05-07T13:49:51;2.92;;;1.33;;
42084;SDS011;27746;52.228;20.890;2023-05-07T13:52:18;2.22;;;1.30;;
42084;SDS011;27746;52.228;20.890;2023-05-07T13:54:45;4.00;;;1.58;;
42084;SDS011;27746;52.228;20.890;2023-05-07T13:57:12;4.35;;;2.08;;
42084;SDS011;27746;52.228;20.890;2023-05-07T13:59:39;2.10;;;1.17;;
42084;SDS011;27746;52.228;20.890;2023-05-07T14:02:06;4.63;;;1.52;;
42084;SDS011;27746;52.228;20.890;2023-05-07T14:04:35;5.05;;;1.30;;
42084;SDS011;27746;52.228;20.890;2023-05-07T14:07:03;3.03;;;1.40;;
42084;SDS011;27746;52.228;20.890;2023-05-07T14:09:30;2.20;;;1.42;;
42084;SDS011;27746;52.228;20.890;2023-05-07T14:11:58;3.33;;;1.48;;
42084;SDS011;27746;52.228;20.890;2023-05-07T14:14:25;3.10;;;1.20;;
42084;SDS011;27746;52.228;20.890;2023-05-07T14:16:52;3.38;;;1.25;;
42084;SDS011;27746;52.228;20.890;2023-05-07T14:19:19;2.55;;;1.30;;
42084;SDS011;27746;52.228;20.890;2023-05-07T14:21:49;3.15;;;1.30;;
42084;SDS011;27746;52.228;20.890;2023-05-07T14:24:15;4.68;;;1.83;;
42084;SDS011;27746;52.228;20.890;2023-05-07T14:26:42;3.15;;;1.20;;
42084;SDS011;27746;52.228;20.890;2023-05-07T14:29:10;5.65;;;1.55;;
42084;SDS011;27746;52.228;20.890;2023-05-07T14:31:37;2.45;;;1.40;;
42084;SDS011;27746;52.228;20.890;2023-05-07T14:34:04;2.88;;;1.40;;
42084;SDS011;27746;52.228;20.890;2023-05-07T14:36:30;2.78;;;1.25;;
42084;SDS011;27746;52.228;20.890;2023-05-07T14:38:59;3.20;;;1.67;;
42084;SDS011;27746;52.228;20.890;2023-05-07T14:41:26;3.08;;;1.40;;
42084;SDS011;27746;52.228;20.890;2023-05-07T14:43:53;4.88;;;1.55;;
42084;SDS011;27746;52.228;20.890;2023-05-07T14:46:19;2.72;;;1.50;;
42084;SDS011;27746;52.228;20.890;2023-05-07T14:48:46;4.88;;;2.13;;
42084;SDS011;27746;52.228;20.890;2023-05-07T14:51:13;4.07;;;1.60;;
42084;SDS011;27746;52.228;20.890;2023-05-07T14:53:40;3.72;;;1.50;;